createdAt,value
2018-01-17T00:00:17.396Z,986.38
2018-01-17T00:02:18.813Z,986.30
2018-01-17T00:04:20.237Z,986.36
2018-01-17T00:06:22.542Z,986.30
2018-01-17T00:08:24.293Z,986.34
2018-01-17T00:10:25.745Z,986.35
2018-01-17T00:12:27.159Z,986.39
2018-01-17T00:14:28.553Z,986.36
2018-01-17T00:16:29.958Z,986.32
2018-01-17T00:18:31.419Z,986.25
2018-01-17T00:20:32.862Z,986.33
2018-01-17T00:22:35.196Z,986.37
2018-01-17T00:24:36.653Z,986.39
2018-01-17T00:26:38.158Z,986.29
2018-01-17T00:28:39.632Z,986.22
2018-01-17T00:30:41.128Z,986.17
2018-01-17T00:32:42.684Z,986.24
2018-01-17T00:34:44.156Z,986.21
2018-01-17T00:36:45.629Z,986.21
2018-01-17T00:39:28.008Z,986.27
2018-01-17T00:41:29.429Z,986.41
2018-01-17T00:43:30.824Z,986.49
2018-01-17T00:45:32.225Z,986.49
2018-01-17T00:47:33.631Z,986.46
2018-01-17T00:49:35.690Z,986.49
2018-01-17T00:51:37.096Z,986.48
2018-01-17T00:53:38.619Z,986.45
2018-01-17T00:55:41.000Z,986.45
2018-01-17T00:57:42.496Z,986.54
2018-01-17T01:00:24.946Z,986.46
2018-01-17T01:02:26.354Z,986.50
2018-01-17T01:04:27.807Z,986.60
2018-01-17T01:06:29.155Z,986.56
2018-01-17T01:08:31.441Z,986.51
2018-01-17T01:10:33.465Z,986.37
2018-01-17T01:12:35.406Z,986.32
2018-01-17T01:14:37.518Z,986.40
2018-01-17T01:16:39.660Z,986.40
2018-01-17T01:19:22.649Z,986.48
2018-01-17T01:21:24.023Z,986.48
2018-01-17T01:23:26.602Z,986.49
2018-01-17T01:25:27.955Z,986.33
2018-01-17T01:27:29.381Z,986.28
2018-01-17T01:29:30.806Z,986.29
2018-01-17T01:31:32.318Z,986.25
2018-01-17T01:33:33.833Z,986.32
2018-01-17T01:35:35.316Z,986.38
2018-01-17T01:38:17.024Z,986.32
2018-01-17T01:40:18.426Z,986.31
2018-01-17T01:42:20.096Z,986.25
2018-01-17T01:44:21.622Z,986.14
2018-01-17T01:46:23.010Z,986.19
2018-01-17T01:48:24.417Z,986.09
2018-01-17T01:50:25.818Z,986.11
2018-01-17T01:52:27.216Z,986.07
2018-01-17T01:54:28.616Z,986.09
2018-01-17T01:56:30.027Z,986.00
2018-01-17T01:58:32.530Z,986.01
2018-01-17T02:00:34.937Z,985.97
2018-01-17T02:02:36.515Z,986.00
2018-01-17T02:04:38.065Z,985.99
2018-01-17T02:06:39.505Z,985.94
2018-01-17T02:08:40.997Z,985.90
2018-01-17T02:10:42.503Z,985.99
2018-01-17T02:12:43.997Z,985.98
2018-01-17T02:14:45.471Z,986.05
2018-01-17T02:16:47.896Z,986.10
2018-01-17T02:18:49.511Z,986.08
2018-01-17T02:20:51.030Z,986.11
2018-01-17T02:22:52.506Z,986.11
2018-01-17T02:24:53.984Z,986.16
2018-01-17T02:26:56.331Z,986.12
2018-01-17T02:28:58.159Z,986.10
2018-01-17T02:30:59.663Z,986.06
2018-01-17T02:33:01.250Z,986.09
2018-01-17T02:35:03.625Z,986.25
2018-01-17T02:37:05.123Z,986.27
2018-01-17T02:39:06.584Z,986.31
2018-01-17T02:41:08.117Z,986.28
2018-01-17T02:43:09.613Z,986.32
2018-01-17T02:45:11.085Z,986.33
2018-01-17T02:47:12.865Z,986.30
2018-01-17T02:49:15.287Z,986.33
2018-01-17T02:51:16.779Z,986.32
2018-01-17T02:53:18.240Z,986.29
2018-01-17T02:55:20.767Z,986.30
2018-01-17T02:57:22.345Z,986.38
2018-01-17T02:59:23.869Z,986.37
2018-01-17T03:01:26.249Z,986.40
2018-01-17T03:03:28.492Z,986.41
2018-01-17T03:05:30.880Z,986.42
2018-01-17T03:07:33.286Z,986.40
2018-01-17T03:09:34.705Z,986.39
2018-01-17T03:11:36.211Z,986.39
2018-01-17T03:13:37.717Z,986.49
2018-01-17T03:15:39.194Z,986.47
2018-01-17T03:17:40.702Z,986.49
2018-01-17T03:19:42.176Z,986.47
2018-01-17T03:21:43.640Z,986.59
2018-01-17T03:23:45.133Z,986.56
2018-01-17T03:25:46.639Z,986.53
2018-01-17T03:27:48.148Z,986.51
2018-01-17T03:29:49.626Z,986.56
2018-01-17T03:31:51.079Z,986.52
2018-01-17T03:33:52.529Z,986.51
2018-01-17T03:35:54.005Z,986.49
2018-01-17T03:37:55.524Z,986.51
2018-01-17T03:39:57.012Z,986.59
2018-01-17T03:41:58.485Z,986.56
2018-01-17T03:44:00.026Z,986.55
2018-01-17T03:46:01.523Z,986.58
2018-01-17T03:48:03.007Z,986.55
2018-01-17T03:50:05.046Z,986.58
2018-01-17T03:52:06.844Z,986.59
2018-01-17T03:54:08.579Z,986.63
2018-01-17T03:56:10.385Z,986.60
2018-01-17T03:58:52.985Z,986.65
2018-01-17T04:00:54.390Z,986.61
2018-01-17T04:02:55.885Z,986.62
2018-01-17T04:04:57.288Z,986.69
2018-01-17T04:06:58.683Z,986.66
2018-01-17T04:09:00.084Z,986.71
2018-01-17T04:11:01.484Z,986.66
2018-01-17T04:13:02.901Z,986.72
2018-01-17T04:15:04.305Z,986.80
2018-01-17T04:17:06.066Z,986.85
2018-01-17T04:19:48.935Z,986.88
2018-01-17T04:21:50.441Z,986.88
2018-01-17T04:23:52.052Z,986.92
2018-01-17T04:25:53.784Z,986.95
2018-01-17T04:27:55.575Z,987.03
2018-01-17T04:29:57.039Z,987.09
2018-01-17T04:31:58.564Z,987.04
2018-01-17T04:34:00.080Z,987.08
2018-01-17T04:36:02.274Z,987.13
2018-01-17T04:38:04.540Z,987.13
2018-01-17T04:40:06.047Z,987.11
2018-01-17T04:42:07.533Z,987.16
2018-01-17T04:44:09.052Z,987.13
2018-01-17T04:46:11.355Z,987.12
2018-01-17T04:48:13.674Z,987.17
2018-01-17T04:50:15.170Z,987.21
2018-01-17T04:52:16.741Z,987.25
2018-01-17T04:54:18.635Z,987.32
2018-01-17T04:56:20.242Z,987.38
2018-01-17T04:58:21.746Z,987.47
2018-01-17T05:00:23.247Z,987.50
2018-01-17T05:02:24.790Z,987.48
2018-01-17T05:04:26.274Z,987.53
2018-01-17T05:06:27.766Z,987.57
2018-01-17T05:08:29.286Z,987.56
2018-01-17T05:10:30.794Z,987.56
2018-01-17T05:12:32.289Z,987.63
2018-01-17T05:15:15.086Z,987.63
2018-01-17T05:17:16.475Z,987.64
2018-01-17T05:19:59.398Z,987.64
2018-01-17T05:22:00.788Z,987.63
2018-01-17T05:24:03.747Z,987.71
2018-01-17T05:26:05.276Z,987.70
2018-01-17T05:28:06.689Z,987.73
2018-01-17T05:30:08.725Z,987.77
2018-01-17T05:32:10.838Z,987.89
2018-01-17T05:34:12.583Z,987.89
2018-01-17T05:36:14.298Z,987.94
2018-01-17T05:38:16.039Z,987.96
2018-01-17T05:40:17.501Z,987.98
2018-01-17T05:42:19.013Z,988.09
2018-01-17T05:44:20.421Z,988.10
2018-01-17T05:46:21.946Z,988.12
2018-01-17T05:48:23.415Z,988.14
2018-01-17T05:50:24.979Z,988.16
2018-01-17T05:53:07.358Z,988.31
2018-01-17T05:55:08.758Z,988.41
2018-01-17T05:57:10.153Z,988.47
2018-01-17T05:59:11.562Z,988.59
2018-01-17T06:01:13.405Z,988.53
2018-01-17T06:03:15.160Z,988.48
2018-01-17T06:05:16.811Z,988.60
2018-01-17T06:07:18.353Z,988.61
2018-01-17T06:09:19.843Z,988.67
2018-01-17T06:11:21.352Z,988.73
2018-01-17T06:13:22.752Z,988.69
2018-01-17T06:15:24.152Z,988.60
2018-01-17T06:17:25.552Z,988.77
2018-01-17T06:20:08.664Z,988.83
2018-01-17T06:22:10.296Z,988.79
2018-01-17T06:24:11.665Z,988.78
2018-01-17T06:26:13.066Z,988.77
2018-01-17T06:28:14.469Z,988.85
2018-01-17T06:30:15.867Z,988.89
2018-01-17T06:32:17.301Z,988.93
2018-01-17T06:34:18.744Z,988.91
2018-01-17T06:36:20.448Z,989.01
2018-01-17T06:38:22.325Z,989.06
2018-01-17T06:40:23.832Z,989.13
2018-01-17T06:42:25.324Z,989.14
2018-01-17T06:44:27.273Z,989.18
2018-01-17T06:46:29.352Z,989.17
2018-01-17T06:48:30.852Z,989.29
2018-01-17T06:50:32.252Z,989.28
2018-01-17T06:52:33.695Z,989.32
2018-01-17T06:54:35.885Z,989.47
2018-01-17T06:56:37.518Z,989.53
2018-01-17T06:58:38.994Z,989.71
2018-01-17T07:00:40.523Z,989.72
2018-01-17T07:02:42.731Z,989.82
2018-01-17T07:04:44.193Z,989.94
2018-01-17T07:06:45.622Z,989.98
2018-01-17T07:08:47.716Z,990.09
2018-01-17T07:10:49.225Z,990.05
2018-01-17T07:12:51.177Z,990.09
2018-01-17T07:14:52.658Z,990.20
2018-01-17T07:16:54.195Z,990.27
2018-01-17T07:19:36.587Z,990.44
2018-01-17T07:21:37.990Z,990.50
2018-01-17T07:23:39.388Z,990.49
2018-01-17T07:25:40.805Z,990.50
2018-01-17T07:27:42.719Z,990.51
2018-01-17T07:29:44.158Z,990.56
2018-01-17T07:31:45.556Z,990.50
2018-01-17T07:33:47.572Z,990.55
2018-01-17T07:35:49.288Z,990.56
2018-01-17T07:37:50.764Z,990.66
2018-01-17T07:40:33.554Z,990.75
2018-01-17T07:42:35.111Z,990.77
2018-01-17T07:44:36.615Z,990.76
2018-01-17T07:46:38.018Z,990.65
2018-01-17T07:48:39.417Z,990.67
2018-01-17T07:50:40.820Z,990.78
2018-01-17T07:52:42.222Z,990.76
2018-01-17T07:54:43.627Z,990.91
2018-01-17T07:56:45.032Z,990.99
2018-01-17T07:58:46.436Z,991.13
2018-01-17T08:00:48.355Z,991.23
2018-01-17T08:02:49.731Z,991.18
2018-01-17T08:04:51.485Z,991.36
2018-01-17T08:06:52.899Z,991.41
2018-01-17T08:08:54.307Z,991.31
2018-01-17T08:10:56.086Z,991.36
2018-01-17T08:12:58.329Z,991.27
2018-01-17T08:14:59.698Z,991.37
2018-01-17T08:17:01.285Z,991.32
2018-01-17T08:19:02.965Z,991.32
2018-01-17T08:21:04.925Z,991.34
2018-01-17T08:23:06.817Z,991.33
2018-01-17T08:25:08.345Z,991.44
2018-01-17T08:27:09.880Z,991.51
2018-01-17T08:29:11.303Z,991.38
2018-01-17T08:31:12.975Z,991.46
2018-01-17T08:33:14.458Z,991.51
2018-01-17T08:35:16.053Z,991.54
2018-01-17T08:37:17.584Z,991.56
2018-01-17T08:39:19.257Z,991.57
2018-01-17T08:41:20.748Z,991.59
2018-01-17T08:43:22.272Z,991.68
2018-01-17T08:45:23.773Z,991.73
2018-01-17T08:47:25.642Z,991.75
2018-01-17T08:49:27.583Z,991.79
2018-01-17T08:51:29.086Z,991.90
2018-01-17T08:53:30.874Z,991.88
2018-01-17T08:55:32.398Z,991.95
2018-01-17T08:57:34.169Z,991.96
2018-01-17T08:59:36.026Z,992.03
2018-01-17T09:01:37.880Z,992.02
2018-01-17T09:03:39.674Z,992.03
2018-01-17T09:05:41.335Z,992.13
2018-01-17T09:08:24.395Z,992.14
2018-01-17T09:10:25.790Z,992.13
2018-01-17T09:12:27.907Z,992.22
2018-01-17T09:14:29.359Z,992.27
2018-01-17T09:16:30.998Z,992.24
2018-01-17T09:18:32.472Z,992.42
2018-01-17T09:20:33.984Z,992.39
2018-01-17T09:22:35.401Z,992.40
2018-01-17T09:24:36.946Z,992.53
2018-01-17T09:26:38.416Z,992.52
2018-01-17T09:28:39.853Z,992.51
2018-01-17T09:30:41.429Z,992.62
2018-01-17T09:32:43.102Z,992.58
2018-01-17T09:34:44.806Z,992.61
2018-01-17T09:36:46.293Z,992.66
2018-01-17T09:38:47.822Z,992.59
2018-01-17T09:40:49.522Z,992.65
2018-01-17T09:42:51.202Z,992.68
2018-01-17T09:44:53.364Z,992.64
2018-01-17T09:46:55.187Z,992.73
2018-01-17T09:48:57.506Z,992.78
2018-01-17T09:50:59.625Z,992.83
2018-01-17T09:53:01.318Z,992.82
2018-01-17T09:55:03.380Z,992.74
2018-01-17T09:57:05.095Z,992.86
2018-01-17T09:59:07.390Z,992.83
2018-01-17T10:01:09.064Z,992.82
2018-01-17T10:03:10.851Z,992.85
2018-01-17T10:05:12.609Z,992.90
2018-01-17T10:07:14.247Z,992.94
2018-01-17T10:09:15.965Z,992.95
2018-01-17T10:11:17.647Z,992.86
2018-01-17T10:13:19.300Z,992.92
2018-01-17T10:15:22.733Z,992.89
2018-01-17T10:17:26.016Z,992.92
2018-01-17T10:19:27.727Z,992.88
2018-01-17T10:21:29.404Z,992.86
2018-01-17T10:23:31.120Z,992.88
2018-01-17T10:25:32.904Z,992.92
2018-01-17T10:27:35.334Z,993.01
2018-01-17T10:29:37.044Z,993.14
2018-01-17T10:31:38.773Z,993.14
2018-01-17T10:33:40.440Z,993.20
2018-01-17T10:35:42.229Z,993.15
2018-01-17T10:37:43.853Z,993.12
2018-01-17T10:39:45.397Z,993.12
2018-01-17T10:41:47.749Z,993.14
2018-01-17T10:43:49.434Z,993.11
2018-01-17T10:45:51.730Z,993.12
2018-01-17T10:47:54.172Z,993.17
2018-01-17T10:49:55.706Z,993.14
2018-01-17T10:51:57.403Z,993.13
2018-01-17T10:53:58.900Z,993.18
2018-01-17T10:56:01.148Z,993.21
2018-01-17T10:58:02.808Z,993.35
2018-01-17T11:00:04.362Z,993.29
2018-01-17T11:02:06.004Z,993.26
2018-01-17T11:04:07.622Z,993.32
2018-01-17T11:06:09.374Z,993.39
2018-01-17T11:08:11.077Z,993.42
2018-01-17T11:10:12.784Z,993.49
2018-01-17T11:12:14.490Z,993.46
2018-01-17T11:14:16.403Z,993.50
2018-01-17T11:16:18.565Z,993.52
2018-01-17T11:18:20.383Z,993.53
2018-01-17T11:20:22.144Z,993.52
2018-01-17T11:22:23.872Z,993.52
2018-01-17T11:24:25.746Z,993.61
2018-01-17T11:26:27.498Z,993.50
2018-01-17T11:28:29.092Z,993.53
2018-01-17T11:30:30.671Z,993.52
2018-01-17T11:32:32.206Z,993.48
2018-01-17T11:34:33.702Z,993.49
2018-01-17T11:36:35.220Z,993.51
2018-01-17T11:38:36.828Z,993.48
2018-01-17T11:40:38.542Z,993.50
2018-01-17T11:42:40.499Z,993.61
2018-01-17T11:44:42.076Z,993.61
2018-01-17T11:46:43.652Z,993.62
2018-01-17T11:48:45.094Z,993.85
2018-01-17T11:50:46.830Z,993.84
2018-01-17T11:52:48.377Z,993.73
2018-01-17T11:54:50.286Z,993.65
2018-01-17T11:56:52.026Z,993.66
2018-01-17T11:58:53.769Z,993.69
2018-01-17T12:00:55.542Z,993.67
2018-01-17T12:02:57.305Z,993.64
2018-01-17T12:04:59.090Z,993.73
2018-01-17T12:07:00.824Z,993.80
2018-01-17T12:09:02.810Z,993.73
2018-01-17T12:11:04.551Z,993.72
2018-01-17T12:13:06.224Z,993.75
2018-01-17T12:15:07.940Z,993.74
2018-01-17T12:17:10.218Z,993.84
2018-01-17T12:19:11.863Z,993.86
2018-01-17T12:21:13.882Z,993.96
2018-01-17T12:23:15.731Z,993.96
2018-01-17T12:25:17.266Z,993.99
2018-01-17T12:27:18.737Z,994.02
2018-01-17T12:29:20.250Z,993.91
2018-01-17T12:31:21.773Z,993.82
2018-01-17T12:33:23.359Z,993.84
2018-01-17T12:35:24.854Z,993.83
2018-01-17T12:37:26.534Z,993.74
2018-01-17T12:39:28.156Z,993.92
2018-01-17T12:41:29.657Z,994.02
2018-01-17T12:43:31.306Z,993.93
2018-01-17T12:45:32.940Z,993.95
2018-01-17T12:47:34.493Z,994.01
2018-01-17T12:49:35.974Z,993.97
2018-01-17T12:51:37.620Z,994.08
2018-01-17T12:53:39.110Z,994.11
2018-01-17T12:55:40.687Z,994.12
2018-01-17T12:57:42.237Z,994.14
2018-01-17T12:59:44.030Z,994.22
2018-01-17T13:01:45.922Z,994.37
2018-01-17T13:03:47.759Z,994.46
2018-01-17T13:05:49.488Z,994.45
2018-01-17T13:07:50.977Z,994.46
2018-01-17T13:09:52.406Z,994.45
2018-01-17T13:11:53.887Z,994.47
2018-01-17T13:13:55.335Z,994.49
2018-01-17T13:15:56.746Z,994.50
2018-01-17T13:17:58.183Z,994.64
2018-01-17T13:19:59.607Z,994.58
2018-01-17T13:22:00.997Z,994.61
2018-01-17T13:24:02.403Z,994.51
2018-01-17T13:26:03.810Z,994.69
2018-01-17T13:28:05.219Z,994.67
2018-01-17T13:30:06.631Z,994.63
2018-01-17T13:32:08.046Z,994.59
2018-01-17T13:34:09.461Z,994.59
2018-01-17T13:36:11.145Z,994.54
2018-01-17T13:38:12.804Z,994.45
2018-01-17T13:40:14.534Z,994.66
2018-01-17T13:42:16.224Z,994.68
2018-01-17T13:44:17.897Z,994.80
2018-01-17T13:46:19.658Z,994.93
2018-01-17T13:48:21.157Z,995.07
2018-01-17T13:50:22.623Z,995.08
2018-01-17T13:52:24.034Z,995.04
2018-01-17T13:54:25.526Z,995.06
2018-01-17T13:56:26.910Z,995.03
2018-01-17T13:58:28.310Z,995.01
2018-01-17T14:00:29.722Z,995.03
2018-01-17T14:02:31.128Z,995.09
2018-01-17T14:04:32.560Z,995.11
2018-01-17T14:06:33.966Z,995.24
2018-01-17T14:08:35.374Z,995.28
2018-01-17T14:10:36.777Z,995.30
2018-01-17T14:12:38.399Z,995.29
2018-01-17T14:14:39.851Z,995.25
2018-01-17T14:16:41.276Z,995.24
2018-01-17T14:18:42.704Z,995.29
2018-01-17T14:20:44.201Z,995.26
2018-01-17T14:22:45.700Z,995.33
2018-01-17T14:24:47.165Z,995.34
2018-01-17T14:26:48.584Z,995.32
2018-01-17T14:28:49.995Z,995.34
2018-01-17T14:30:51.402Z,995.38
2018-01-17T14:32:52.796Z,995.40
2018-01-17T14:34:54.350Z,995.47
2018-01-17T14:36:55.910Z,995.48
2018-01-17T14:38:57.393Z,995.63
2018-01-17T14:40:59.040Z,995.73
2018-01-17T14:43:00.558Z,995.77
2018-01-17T14:45:02.009Z,995.82
2018-01-17T14:47:03.454Z,995.85
2018-01-17T14:49:04.904Z,995.80
2018-01-17T14:51:06.662Z,995.85
2018-01-17T14:53:08.763Z,995.95
2018-01-17T14:55:10.262Z,995.98
2018-01-17T14:57:11.747Z,995.93
2018-01-17T14:59:13.184Z,996.03
2018-01-17T15:01:14.745Z,996.02
2018-01-17T15:03:16.301Z,996.05
2018-01-17T15:05:17.743Z,996.05
2018-01-17T15:07:19.191Z,996.13
2018-01-17T15:09:20.715Z,996.10
2018-01-17T15:11:22.191Z,996.14
2018-01-17T15:13:23.645Z,996.16
2018-01-17T15:15:25.336Z,996.22
2018-01-17T15:17:26.966Z,996.28
2018-01-17T15:19:28.653Z,996.35
2018-01-17T15:21:30.302Z,996.34
2018-01-17T15:23:32.040Z,996.45
2018-01-17T15:25:33.999Z,996.52
2018-01-17T15:27:36.202Z,996.62
2018-01-17T15:29:38.235Z,996.73
2018-01-17T15:31:39.915Z,996.79
2018-01-17T15:33:41.821Z,996.91
2018-01-17T15:35:43.704Z,997.03
2018-01-17T15:37:45.163Z,997.03
2018-01-17T15:39:47.292Z,997.05
2018-01-17T15:41:49.019Z,997.10
2018-01-17T15:43:50.554Z,997.15
2018-01-17T15:45:52.085Z,997.24
2018-01-17T15:47:53.549Z,997.27
2018-01-17T15:49:54.983Z,997.28
2018-01-17T15:51:56.533Z,997.36
2018-01-17T15:53:58.274Z,997.41
2018-01-17T15:55:59.914Z,997.46
2018-01-17T15:58:01.502Z,997.46
2018-01-17T16:00:03.032Z,997.51
2018-01-17T16:02:04.585Z,997.55
2018-01-17T16:04:06.108Z,997.56
2018-01-17T16:06:07.670Z,997.53
2018-01-17T16:08:09.185Z,997.61
2018-01-17T16:10:10.717Z,997.64
2018-01-17T16:12:12.230Z,997.58
2018-01-17T16:14:13.736Z,997.57
2018-01-17T16:16:15.266Z,997.60
2018-01-17T16:18:16.738Z,997.55
2018-01-17T16:20:18.214Z,997.50
2018-01-17T16:22:19.749Z,997.60
2018-01-17T16:24:21.222Z,997.70
2018-01-17T16:26:22.690Z,997.84
2018-01-17T16:28:24.252Z,997.90
2018-01-17T16:30:25.986Z,997.94
2018-01-17T16:32:27.738Z,998.01
2018-01-17T16:34:29.409Z,998.08
2018-01-17T16:36:31.137Z,998.13
2018-01-17T16:38:32.768Z,998.17
2018-01-17T16:40:34.382Z,998.25
2018-01-17T16:42:36.081Z,998.21
2018-01-17T16:44:37.784Z,998.37
2018-01-17T16:46:39.307Z,998.39
2018-01-17T16:48:41.469Z,998.35
2018-01-17T16:50:43.183Z,998.45
2018-01-17T16:52:45.373Z,998.42
2018-01-17T16:54:46.998Z,998.41
2018-01-17T16:56:48.716Z,998.39
2018-01-17T16:58:50.472Z,998.43
2018-01-17T17:00:52.518Z,998.50
2018-01-17T17:02:54.355Z,998.41
2018-01-17T17:04:55.807Z,998.47
2018-01-17T17:06:57.257Z,998.39
2018-01-17T17:08:58.708Z,998.51
2018-01-17T17:11:00.189Z,998.47
2018-01-17T17:13:01.597Z,998.56
2018-01-17T17:15:03.082Z,998.59
2018-01-17T17:17:04.583Z,998.90
2018-01-17T17:19:06.053Z,998.94
2018-01-17T17:21:07.557Z,998.90
2018-01-17T17:23:09.066Z,999.04
2018-01-17T17:25:10.480Z,999.00
2018-01-17T17:27:11.927Z,999.01
2018-01-17T17:29:13.434Z,998.81
2018-01-17T17:31:14.879Z,998.80
2018-01-17T17:33:16.337Z,998.89
2018-01-17T17:35:17.888Z,998.87
2018-01-17T17:37:19.320Z,998.95
2018-01-17T17:39:20.822Z,998.96
2018-01-17T17:41:22.343Z,999.14
2018-01-17T17:43:23.994Z,999.05
2018-01-17T17:45:26.170Z,999.03
2018-01-17T17:47:27.848Z,998.92
2018-01-17T17:49:29.523Z,999.04
2018-01-17T17:51:31.242Z,999.07
2018-01-17T17:53:33.255Z,999.06
2018-01-17T17:55:35.359Z,998.97
2018-01-17T17:57:37.345Z,999.04
2018-01-17T17:59:38.935Z,999.13
2018-01-17T18:01:40.733Z,999.23
2018-01-17T18:03:42.375Z,999.21
2018-01-17T18:05:43.889Z,999.22
2018-01-17T18:07:45.307Z,999.17
2018-01-17T18:09:46.772Z,999.18
2018-01-17T18:11:48.245Z,999.21
2018-01-17T18:13:49.754Z,999.26
2018-01-17T18:15:51.250Z,999.21
2018-01-17T18:17:52.749Z,999.17
2018-01-17T18:19:54.207Z,999.15
2018-01-17T18:21:55.873Z,999.16
2018-01-17T18:23:57.451Z,999.26
2018-01-17T18:25:59.088Z,999.26
2018-01-17T18:28:01.350Z,999.30
2018-01-17T18:30:02.987Z,999.10
2018-01-17T18:32:04.671Z,999.16
2018-01-17T18:34:06.134Z,999.19
2018-01-17T18:36:07.610Z,999.16
2018-01-17T18:38:09.278Z,999.23
2018-01-17T18:40:10.915Z,999.25
2018-01-17T18:42:12.895Z,999.22
2018-01-17T18:44:14.322Z,999.25
2018-01-17T18:46:15.725Z,999.29
2018-01-17T18:48:17.150Z,999.29
2018-01-17T18:50:18.582Z,999.28
2018-01-17T18:52:20.349Z,999.34
2018-01-17T18:54:21.804Z,999.31
2018-01-17T18:56:23.269Z,999.29
2018-01-17T18:58:24.764Z,999.33
2018-01-17T19:00:26.238Z,999.35
2018-01-17T19:02:27.725Z,999.41
2018-01-17T19:04:29.229Z,999.41
2018-01-17T19:06:30.769Z,999.43
2018-01-17T19:08:32.323Z,999.34
2018-01-17T19:10:33.835Z,999.44
2018-01-17T19:12:35.285Z,999.41
2018-01-17T19:14:36.773Z,999.38
2018-01-17T19:16:38.270Z,999.34
2018-01-17T19:18:40.106Z,999.36
2018-01-17T19:20:41.585Z,999.38
2018-01-17T19:22:43.197Z,999.43
2018-01-17T19:24:44.654Z,999.38
2018-01-17T19:26:46.220Z,999.39
2018-01-17T19:28:47.677Z,999.38
2018-01-17T19:30:49.155Z,999.45
2018-01-17T19:32:50.648Z,999.38
2018-01-17T19:34:52.149Z,999.40
2018-01-17T19:36:53.650Z,999.50
2018-01-17T19:38:55.094Z,999.52
2018-01-17T19:40:56.521Z,999.50
2018-01-17T19:42:58.044Z,999.52
2018-01-17T19:44:59.520Z,999.48
2018-01-17T19:47:00.919Z,999.53
2018-01-17T19:49:02.403Z,999.51
2018-01-17T19:51:03.887Z,999.52
2018-01-17T19:53:05.347Z,999.48
2018-01-17T19:55:07.021Z,999.44
2018-01-17T19:57:08.504Z,999.45
2018-01-17T19:59:10.023Z,999.47
2018-01-17T20:01:11.522Z,999.54
2018-01-17T20:03:12.986Z,999.53
2018-01-17T20:05:14.489Z,999.61
2018-01-17T20:07:15.961Z,999.65
2018-01-17T20:09:17.432Z,999.65
2018-01-17T20:11:18.907Z,999.65
2018-01-17T20:13:20.378Z,999.66
2018-01-17T20:15:21.846Z,999.63
2018-01-17T20:17:23.344Z,999.64
2018-01-17T20:19:24.873Z,999.64
2018-01-17T20:21:26.301Z,999.64
2018-01-17T20:23:27.727Z,999.66
2018-01-17T20:25:29.227Z,999.64
2018-01-17T20:27:30.708Z,999.70
2018-01-17T20:29:32.472Z,999.69
2018-01-17T20:31:33.997Z,999.68
2018-01-17T20:33:35.448Z,999.71
2018-01-17T20:35:37.735Z,999.74
2018-01-17T20:37:39.248Z,999.79
2018-01-17T20:39:40.707Z,999.82
2018-01-17T20:41:42.123Z,999.81
2018-01-17T20:43:43.530Z,999.77
2018-01-17T20:45:44.942Z,999.76
2018-01-17T20:47:47.368Z,999.78
2018-01-17T20:49:49.503Z,999.75
2018-01-17T20:51:51.775Z,999.75
2018-01-17T20:53:53.238Z,999.77
2018-01-17T20:55:54.787Z,999.83
2018-01-17T20:57:56.331Z,999.88
2018-01-17T20:59:57.984Z,999.90
2018-01-17T21:01:59.477Z,999.87
2018-01-17T21:04:00.955Z,999.86
2018-01-17T21:06:02.652Z,999.89
2018-01-17T21:08:04.386Z,999.85
2018-01-17T21:10:05.840Z,999.84
2018-01-17T21:12:07.302Z,999.82
2018-01-17T21:14:08.867Z,999.89
2018-01-17T21:16:10.323Z,999.85
2018-01-17T21:18:11.798Z,999.91
2018-01-17T21:20:13.304Z,999.87
2018-01-17T21:23:00.344Z,999.85
2018-01-17T21:25:01.725Z,999.89
2018-01-17T21:27:03.138Z,999.91
2018-01-17T21:29:04.572Z,999.88
2018-01-17T21:31:06.094Z,999.85
2018-01-17T21:33:07.588Z,999.91
2018-01-17T21:35:09.071Z,999.91
2018-01-17T21:37:10.474Z,999.98
2018-01-17T21:39:11.882Z,999.93
2018-01-17T21:41:13.349Z,999.94
2018-01-17T21:43:15.349Z,1000.02
2018-01-17T21:45:17.273Z,1000.01
2018-01-17T21:47:18.952Z,1000.03
2018-01-17T21:49:20.519Z,1000.02
2018-01-17T21:51:21.945Z,999.99
2018-01-17T21:53:23.347Z,999.95
2018-01-17T21:55:24.793Z,999.87
2018-01-17T21:57:26.305Z,999.79
2018-01-17T21:59:27.809Z,999.86
2018-01-17T22:02:10.251Z,999.82
2018-01-17T22:04:11.666Z,999.88
2018-01-17T22:06:13.083Z,999.88
2018-01-17T22:08:14.893Z,999.90
2018-01-17T22:10:16.296Z,999.90
2018-01-17T22:12:17.700Z,999.89
2018-01-17T22:14:19.111Z,999.96
2018-01-17T22:16:20.553Z,1000.01
2018-01-17T22:18:22.029Z,999.99
2018-01-17T22:20:23.605Z,999.94
2018-01-17T22:22:25.115Z,999.88
2018-01-17T22:24:26.723Z,999.97
2018-01-17T22:26:28.180Z,999.99
2018-01-17T22:28:29.585Z,999.97
2018-01-17T22:30:30.992Z,999.95
2018-01-17T22:32:32.399Z,999.92
2018-01-17T22:34:33.811Z,999.98
2018-01-17T22:36:35.984Z,999.90
2018-01-17T22:38:38.175Z,999.86
2018-01-17T22:40:39.943Z,999.90
2018-01-17T22:42:41.377Z,999.84
2018-01-17T22:44:42.851Z,999.80
2018-01-17T22:46:44.402Z,999.79
2018-01-17T22:48:46.509Z,999.78
2018-01-17T22:50:48.851Z,999.77
2018-01-17T22:52:50.794Z,999.79
2018-01-17T22:54:52.478Z,999.74
2018-01-17T22:56:54.668Z,999.78
2018-01-17T22:58:56.375Z,999.75
2018-01-17T23:00:58.164Z,999.86
2018-01-17T23:02:59.806Z,999.81
2018-01-17T23:05:01.341Z,999.73
2018-01-17T23:07:02.858Z,999.74
2018-01-17T23:09:05.388Z,999.66
2018-01-17T23:11:07.404Z,999.60
2018-01-17T23:13:09.287Z,999.62
2018-01-17T23:15:11.198Z,999.60
2018-01-17T23:17:13.278Z,999.56
2018-01-17T23:19:14.819Z,999.55
2018-01-17T23:21:57.731Z,999.56
2018-01-17T23:23:59.524Z,999.61
2018-01-17T23:26:01.104Z,999.62
2018-01-17T23:28:03.280Z,999.60
2018-01-17T23:30:04.932Z,999.57
2018-01-17T23:32:06.723Z,999.55
2018-01-17T23:34:08.147Z,999.49
2018-01-17T23:36:09.973Z,999.41
2018-01-17T23:38:11.813Z,999.30
2018-01-17T23:40:13.353Z,999.30
2018-01-17T23:42:15.284Z,999.32
2018-01-17T23:44:16.839Z,999.22
2018-01-17T23:46:18.942Z,999.15
2018-01-17T23:48:20.425Z,999.22
2018-01-17T23:50:21.954Z,999.17
2018-01-17T23:52:23.828Z,999.21
2018-01-17T23:54:26.040Z,999.22
2018-01-17T23:56:27.959Z,999.27
2018-01-17T23:58:29.440Z,999.19
